createdAt,value
2022-10-05T00:02:22.890Z,50.83
2022-10-05T00:04:56.517Z,50.58
2022-10-05T00:07:25.148Z,50.57
2022-10-05T00:09:56.626Z,50.79
2022-10-05T00:12:25.598Z,50.70
2022-10-05T00:14:57.977Z,50.41
2022-10-05T00:17:29.335Z,50.76
2022-10-05T00:19:57.478Z,50.53
2022-10-05T00:22:31.187Z,50.52
2022-10-05T00:25:02.081Z,50.82
2022-10-05T00:27:36.800Z,50.64
2022-10-05T00:30:24.963Z,50.48
2022-10-05T00:32:57.287Z,50.69
2022-10-05T00:35:29.531Z,50.79
2022-10-05T00:37:57.359Z,50.54
2022-10-05T00:40:42.343Z,50.85
2022-10-05T00:43:40.867Z,50.99
2022-10-05T00:46:16.646Z,50.80
2022-10-05T00:49:03.164Z,50.76
2022-10-05T00:51:36.401Z,50.83
2022-10-05T00:54:29.687Z,50.68
2022-10-05T00:57:24.084Z,51.09
2022-10-05T01:00:13.186Z,51.06
2022-10-05T01:03:06.824Z,50.61
2022-10-05T01:05:57.485Z,50.71
2022-10-05T01:08:37.071Z,50.73
2022-10-05T01:11:44.556Z,50.75
2022-10-05T01:14:28.176Z,51.07
2022-10-05T01:17:13.569Z,50.95
2022-10-05T01:20:11.252Z,51.00
2022-10-05T01:22:57.356Z,50.70
2022-10-05T01:25:51.105Z,50.66
2022-10-05T01:28:33.078Z,51.14
2022-10-05T01:31:21.774Z,50.80
2022-10-05T01:34:11.416Z,51.20
2022-10-05T01:36:51.581Z,51.01
2022-10-05T01:39:28.794Z,51.00
2022-10-05T01:42:04.609Z,50.71
2022-10-05T01:44:44.479Z,50.73
2022-10-05T01:47:46.398Z,50.85
2022-10-05T01:50:20.160Z,50.71
2022-10-05T01:53:00.823Z,50.87
2022-10-05T01:55:36.060Z,50.61
2022-10-05T01:58:23.246Z,50.60
2022-10-05T02:01:12.934Z,50.78
2022-10-05T02:03:48.644Z,50.82
2022-10-05T02:06:26.835Z,50.58
2022-10-05T02:09:03.426Z,50.46
2022-10-05T02:11:32.603Z,50.71
2022-10-05T02:14:10.780Z,50.84
2022-10-05T02:16:43.924Z,50.68
2022-10-05T02:19:12.287Z,50.65
2022-10-05T02:21:49.168Z,50.79
2022-10-05T02:24:28.394Z,50.68
2022-10-05T02:26:57.909Z,50.65
2022-10-05T02:29:31.367Z,50.73
2022-10-05T02:32:13.790Z,50.50
2022-10-05T02:34:43.445Z,50.61
2022-10-05T02:37:32.971Z,50.75
2022-10-05T02:40:00.559Z,50.88
2022-10-05T02:42:39.505Z,50.81
2022-10-05T02:45:27.664Z,50.61
2022-10-05T02:48:08.231Z,50.62
2022-10-05T02:50:49.440Z,50.85
2022-10-05T02:53:17.650Z,50.54
2022-10-05T02:56:00.061Z,50.96
2022-10-05T02:58:33.230Z,50.77
2022-10-05T03:01:15.709Z,50.63
2022-10-05T03:04:04.321Z,50.50
2022-10-05T03:06:40.578Z,50.68
2022-10-05T03:09:09.704Z,50.57
2022-10-05T03:12:04.136Z,50.58
2022-10-05T03:15:06.800Z,50.34
2022-10-05T03:17:47.153Z,50.51
2022-10-05T03:20:33.527Z,50.69
2022-10-05T03:23:04.710Z,50.57
2022-10-05T03:25:41.491Z,50.34
2022-10-05T03:28:31.612Z,50.40
2022-10-05T03:31:15.782Z,50.34
2022-10-05T03:34:27.948Z,50.42
2022-10-05T03:37:15.763Z,50.50
2022-10-05T03:39:53.832Z,50.15
2022-10-05T03:42:45.337Z,50.26
2022-10-05T03:45:33.681Z,50.22
2022-10-05T03:48:10.057Z,50.36
2022-10-05T03:50:57.133Z,50.03
2022-10-05T03:53:32.808Z,50.71
2022-10-05T03:56:15.548Z,50.56
2022-10-05T03:58:57.536Z,50.55
2022-10-05T04:02:01.644Z,50.79
2022-10-05T04:04:41.170Z,50.59
2022-10-05T04:07:22.122Z,50.84
2022-10-05T04:09:52.905Z,50.53
2022-10-05T04:12:27.300Z,50.55
2022-10-05T04:15:08.696Z,50.79
2022-10-05T04:17:45.557Z,50.76
2022-10-05T04:20:25.576Z,50.69
2022-10-05T04:23:22.415Z,51.08
2022-10-05T04:25:59.573Z,51.17
2022-10-05T04:29:01.324Z,51.14
2022-10-05T04:31:57.056Z,51.10
2022-10-05T04:34:37.048Z,51.11
2022-10-05T04:37:13.017Z,51.15
2022-10-05T04:40:10.965Z,51.51
2022-10-05T04:42:44.588Z,51.34
2022-10-05T04:45:12.187Z,51.25
2022-10-05T04:48:15.135Z,51.34
2022-10-05T04:51:13.933Z,51.33
2022-10-05T04:54:04.422Z,51.33
2022-10-05T04:56:55.482Z,51.66
2022-10-05T04:59:42.431Z,51.83
2022-10-05T05:02:22.460Z,52.15
2022-10-05T05:05:21.295Z,51.85
2022-10-05T05:08:25.741Z,51.93
2022-10-05T05:11:17.386Z,51.92
2022-10-05T05:14:04.427Z,51.87
2022-10-05T05:16:41.869Z,51.62
2022-10-05T05:19:40.281Z,52.15
2022-10-05T05:22:14.627Z,51.78
2022-10-05T05:24:48.329Z,51.86
2022-10-05T05:27:38.928Z,51.79
2022-10-05T05:30:23.602Z,51.57
2022-10-05T05:33:20.717Z,51.02
2022-10-05T05:36:10.335Z,51.06
2022-10-05T05:38:47.066Z,51.11
2022-10-05T05:41:25.259Z,51.19
2022-10-05T05:44:02.655Z,50.58
2022-10-05T05:47:05.052Z,50.35
2022-10-05T05:50:16.770Z,50.35
2022-10-05T05:53:17.793Z,50.18
2022-10-05T05:55:50.210Z,50.39
2022-10-05T05:58:27.769Z,50.24
2022-10-05T06:01:33.266Z,49.85
2022-10-05T06:04:27.020Z,49.96
2022-10-05T06:06:58.265Z,50.03
2022-10-05T06:09:38.018Z,50.09
2022-10-05T06:12:36.455Z,50.17
2022-10-05T06:15:17.803Z,50.25
2022-10-05T06:17:51.374Z,50.00
2022-10-05T06:20:33.827Z,50.14
2022-10-05T06:23:07.550Z,50.36
2022-10-05T06:25:45.695Z,49.81
2022-10-05T06:28:16.356Z,50.28
2022-10-05T06:31:24.285Z,49.90
2022-10-05T06:34:19.530Z,49.97
2022-10-05T06:37:00.732Z,49.62
2022-10-05T06:40:00.907Z,49.75
2022-10-05T06:42:57.131Z,49.80
2022-10-05T06:46:18.287Z,49.81
2022-10-05T06:49:02.206Z,49.86
2022-10-05T06:51:50.627Z,49.82
2022-10-05T06:54:33.860Z,49.66
2022-10-05T06:57:15.861Z,51.00
2022-10-05T06:59:56.081Z,52.49
2022-10-05T07:02:34.808Z,51.34
2022-10-05T07:05:09.049Z,50.88
2022-10-05T07:07:39.578Z,51.03
2022-10-05T07:10:08.293Z,51.30
2022-10-05T07:12:51.164Z,51.62
2022-10-05T07:15:36.983Z,52.07
2022-10-05T07:18:21.593Z,52.51
2022-10-05T07:21:17.223Z,52.54
2022-10-05T07:23:59.784Z,52.63
2022-10-05T07:26:39.893Z,53.16
2022-10-05T07:29:07.628Z,53.23
2022-10-05T07:32:21.078Z,53.53
2022-10-05T07:34:55.968Z,53.24
2022-10-05T07:37:53.033Z,53.48
2022-10-05T07:40:39.458Z,53.25
2022-10-05T07:43:21.074Z,52.68
2022-10-05T07:46:26.277Z,52.78
2022-10-05T07:49:12.418Z,52.56
2022-10-05T07:51:59.508Z,52.47
2022-10-05T07:54:42.972Z,52.27
2022-10-05T07:57:24.386Z,51.90
2022-10-05T08:00:07.169Z,52.00
2022-10-05T08:03:06.671Z,51.79
2022-10-05T08:05:53.202Z,51.45
2022-10-05T08:08:36.417Z,51.02
2022-10-05T08:11:17.577Z,51.29
2022-10-05T08:14:17.512Z,50.40
2022-10-05T08:16:48.568Z,50.34
2022-10-05T08:19:24.224Z,49.89
2022-10-05T08:22:03.376Z,49.79
2022-10-05T08:24:52.237Z,50.02
2022-10-05T08:27:29.252Z,49.90
2022-10-05T08:30:02.293Z,49.24
2022-10-05T08:32:51.503Z,49.57
2022-10-05T08:35:39.980Z,49.35
2022-10-05T08:38:16.947Z,49.36
2022-10-05T08:40:47.736Z,49.31
2022-10-05T08:43:32.936Z,49.48
2022-10-05T08:46:21.387Z,49.52
2022-10-05T08:48:54.944Z,49.73
2022-10-05T08:51:31.863Z,49.27
2022-10-05T08:54:10.006Z,49.45
2022-10-05T08:56:51.679Z,49.63
2022-10-05T08:59:34.398Z,49.91
2022-10-05T09:02:32.482Z,50.01
2022-10-05T09:05:37.904Z,50.55
2022-10-05T09:08:36.664Z,50.87
2022-10-05T09:11:32.716Z,51.34
2022-10-05T09:14:32.379Z,50.91
2022-10-05T09:17:08.930Z,50.96
2022-10-05T09:19:42.761Z,50.91
2022-10-05T09:22:26.593Z,50.95
2022-10-05T09:24:54.297Z,51.07
2022-10-05T09:28:02.752Z,51.07
2022-10-05T09:30:49.666Z,51.16
2022-10-05T09:33:38.718Z,51.17
2022-10-05T09:36:55.976Z,51.22
2022-10-05T09:39:45.497Z,51.33
2022-10-05T09:42:36.147Z,51.46
2022-10-05T09:45:03.765Z,51.50
2022-10-05T09:47:53.016Z,51.55
2022-10-05T09:50:32.889Z,51.49
2022-10-05T09:53:15.938Z,51.60
2022-10-05T09:55:52.676Z,52.54
2022-10-05T09:58:47.574Z,51.99
2022-10-05T10:01:34.500Z,51.24
2022-10-05T10:04:25.092Z,51.21
2022-10-05T10:07:08.124Z,51.04
2022-10-05T10:09:52.780Z,50.58
2022-10-05T10:12:57.257Z,50.62
2022-10-05T10:15:27.927Z,50.71
2022-10-05T10:17:58.779Z,51.02
2022-10-05T10:20:34.075Z,50.50
2022-10-05T10:23:31.652Z,50.54
2022-10-05T10:26:08.527Z,50.62
2022-10-05T10:29:15.188Z,51.06
2022-10-05T10:31:55.183Z,50.81
2022-10-05T10:35:00.260Z,50.61
2022-10-05T10:37:42.493Z,50.65
2022-10-05T10:40:39.428Z,50.82
2022-10-05T10:43:26.710Z,51.12
2022-10-05T10:45:57.368Z,51.36
2022-10-05T10:48:31.475Z,51.69
2022-10-05T10:50:59.869Z,51.91
2022-10-05T10:53:42.621Z,52.39
2022-10-05T10:56:19.248Z,52.03
2022-10-05T10:59:26.670Z,52.11
2022-10-05T11:02:42.644Z,51.74
2022-10-05T11:05:35.305Z,51.70
2022-10-05T11:08:27.416Z,51.80
2022-10-05T11:11:28.610Z,51.80
2022-10-05T11:14:27.263Z,51.67
2022-10-05T11:17:04.201Z,51.56
2022-10-05T11:20:05.112Z,51.85
2022-10-05T11:22:58.352Z,51.66
2022-10-05T11:26:16.787Z,52.07
2022-10-05T11:29:12.359Z,51.66
2022-10-05T11:32:03.386Z,51.75
2022-10-05T11:34:40.893Z,51.77
2022-10-05T11:37:14.374Z,51.94
2022-10-05T11:40:11.940Z,52.43
2022-10-05T11:43:13.654Z,51.67
2022-10-05T11:45:52.930Z,51.75
2022-10-05T11:48:34.227Z,51.63
2022-10-05T11:51:17.047Z,51.75
2022-10-05T11:53:58.274Z,52.00
2022-10-05T11:56:34.083Z,51.63
2022-10-05T11:59:34.803Z,51.74
2022-10-05T12:02:17.728Z,51.64
2022-10-05T12:05:18.490Z,51.79
2022-10-05T12:08:04.650Z,52.15
2022-10-05T12:11:04.657Z,51.62
2022-10-05T12:13:53.378Z,51.90
2022-10-05T12:16:29.018Z,51.75
2022-10-05T12:19:12.385Z,51.64
2022-10-05T12:22:03.977Z,51.16
2022-10-05T12:24:38.470Z,51.02
2022-10-05T12:27:15.957Z,51.19
2022-10-05T12:30:19.122Z,51.48
2022-10-05T12:32:59.342Z,51.60
2022-10-05T12:35:49.333Z,51.21
2022-10-05T12:38:28.778Z,51.71
2022-10-05T12:41:06.774Z,51.74
2022-10-05T12:44:16.752Z,51.53
2022-10-05T12:46:50.276Z,51.78
2022-10-05T12:50:13.338Z,51.44
2022-10-05T12:52:49.535Z,51.58
2022-10-05T12:55:42.840Z,51.73
2022-10-05T12:59:06.095Z,51.88
2022-10-05T13:01:44.304Z,51.99
2022-10-05T13:04:40.388Z,51.97
2022-10-05T13:07:41.431Z,51.75
2022-10-05T13:10:33.557Z,51.71
2022-10-05T13:13:38.560Z,51.87
2022-10-05T13:16:45.912Z,52.03
2022-10-05T13:19:16.593Z,51.79
2022-10-05T13:21:50.182Z,52.07
2022-10-05T13:24:26.754Z,51.87
2022-10-05T13:27:18.676Z,51.67
2022-10-05T13:30:05.537Z,51.81
2022-10-05T13:32:45.638Z,52.00
2022-10-05T13:35:27.383Z,52.21
2022-10-05T13:38:16.987Z,52.48
2022-10-05T13:40:50.747Z,52.19
2022-10-05T13:43:43.680Z,52.53
2022-10-05T13:46:11.717Z,52.40
2022-10-05T13:48:52.223Z,52.58
2022-10-05T13:51:28.442Z,52.43
2022-10-05T13:54:19.124Z,52.34
2022-10-05T13:56:55.282Z,52.17
2022-10-05T13:59:29.501Z,52.03
2022-10-05T14:02:08.907Z,51.81
2022-10-05T14:04:45.939Z,51.75
2022-10-05T14:07:57.124Z,51.45
2022-10-05T14:10:46.751Z,51.57
2022-10-05T14:13:24.763Z,51.47
2022-10-05T14:16:04.856Z,51.89
2022-10-05T14:18:36.654Z,52.15
2022-10-05T14:21:33.464Z,52.12
2022-10-05T14:24:42.326Z,52.43
2022-10-05T14:27:30.075Z,52.81
2022-10-05T14:30:17.281Z,52.70
2022-10-05T14:32:56.269Z,53.09
2022-10-05T14:35:28.334Z,53.03
2022-10-05T14:38:16.092Z,53.48
2022-10-05T14:40:43.718Z,53.36
2022-10-05T14:43:14.523Z,53.61
2022-10-05T14:46:02.766Z,53.61
2022-10-05T14:48:44.838Z,53.64
2022-10-05T14:51:32.166Z,53.85
2022-10-05T14:54:00.927Z,53.89
2022-10-05T14:57:10.658Z,53.73
2022-10-05T14:59:47.402Z,53.33
2022-10-05T15:02:40.642Z,53.18
2022-10-05T15:05:25.654Z,53.22
2022-10-05T15:08:01.664Z,53.54
2022-10-05T15:10:38.398Z,53.50
2022-10-05T15:13:12.188Z,53.58
2022-10-05T15:15:39.779Z,53.16
2022-10-05T15:18:19.937Z,53.33
2022-10-05T15:20:57.331Z,53.57
2022-10-05T15:23:40.942Z,53.39
2022-10-05T15:26:20.778Z,53.50
2022-10-05T15:29:02.187Z,53.76
2022-10-05T15:31:45.152Z,54.83
2022-10-05T15:34:21.761Z,54.04
2022-10-05T15:36:57.367Z,53.78
2022-10-05T15:39:33.051Z,53.82
2022-10-05T15:42:16.960Z,53.76
2022-10-05T15:44:57.657Z,53.78
2022-10-05T15:47:35.206Z,53.86
2022-10-05T15:50:18.852Z,53.82
2022-10-05T15:52:55.684Z,53.59
2022-10-05T15:55:35.540Z,53.69
2022-10-05T15:58:22.730Z,53.75
2022-10-05T16:00:58.844Z,53.83
2022-10-05T16:03:41.092Z,54.02
2022-10-05T16:06:46.119Z,53.99
2022-10-05T16:09:45.242Z,53.90
2022-10-05T16:12:26.036Z,53.54
2022-10-05T16:14:54.955Z,54.02
2022-10-05T16:17:25.457Z,53.66
2022-10-05T16:19:58.982Z,53.98
2022-10-05T16:22:52.535Z,53.81
2022-10-05T16:25:26.249Z,53.92
2022-10-05T16:28:05.761Z,53.55
2022-10-05T16:30:58.875Z,53.72
2022-10-05T16:33:47.031Z,54.01
2022-10-05T16:36:31.774Z,53.73
2022-10-05T16:39:41.065Z,53.96
2022-10-05T16:42:20.793Z,53.64
2022-10-05T16:45:06.961Z,53.90
2022-10-05T16:47:51.162Z,53.84
2022-10-05T16:50:30.314Z,54.00
2022-10-05T16:53:05.114Z,53.60
2022-10-05T16:55:40.944Z,53.76
2022-10-05T16:58:27.496Z,53.53
2022-10-05T17:01:11.184Z,54.17
2022-10-05T17:04:17.818Z,53.86
2022-10-05T17:06:51.398Z,53.66
2022-10-05T17:09:30.219Z,54.00
2022-10-05T17:12:34.975Z,54.03
2022-10-05T17:15:12.087Z,53.84
2022-10-05T17:17:55.212Z,53.76
2022-10-05T17:20:43.090Z,53.73
2022-10-05T17:23:18.313Z,53.48
2022-10-05T17:26:03.516Z,53.86
2022-10-05T17:28:49.480Z,53.83
2022-10-05T17:31:27.619Z,53.74
2022-10-05T17:34:26.557Z,54.15
2022-10-05T17:37:14.794Z,53.57
2022-10-05T17:39:51.654Z,53.35
2022-10-05T17:42:31.463Z,53.92
2022-10-05T17:45:19.585Z,53.38
2022-10-05T17:48:09.811Z,53.32
2022-10-05T17:51:04.138Z,53.32
2022-10-05T17:54:03.226Z,53.77
2022-10-05T17:56:33.899Z,54.17
2022-10-05T17:59:05.388Z,53.84
2022-10-05T18:01:39.052Z,53.18
2022-10-05T18:04:13.092Z,53.23
2022-10-05T18:06:47.668Z,53.15
2022-10-05T18:09:20.801Z,52.87
2022-10-05T18:12:16.903Z,52.74
2022-10-05T18:15:05.724Z,52.95
2022-10-05T18:17:54.925Z,52.73
2022-10-05T18:20:35.002Z,52.72
2022-10-05T18:23:09.709Z,53.33
2022-10-05T18:25:43.678Z,53.30
2022-10-05T18:28:44.795Z,53.27
2022-10-05T18:31:12.492Z,53.19
2022-10-05T18:33:56.630Z,53.16
2022-10-05T18:36:49.244Z,52.86
2022-10-05T18:39:35.635Z,52.67
2022-10-05T18:42:54.895Z,52.74
2022-10-05T18:45:50.813Z,53.06
2022-10-05T18:48:35.845Z,52.84
2022-10-05T18:51:09.688Z,52.92
2022-10-05T18:53:54.202Z,52.98
2022-10-05T18:56:32.250Z,52.76
2022-10-05T18:59:27.365Z,52.91
2022-10-05T19:02:30.970Z,52.79
2022-10-05T19:05:42.941Z,52.98
2022-10-05T19:08:11.188Z,52.85
2022-10-05T19:10:45.668Z,52.81
2022-10-05T19:13:25.096Z,53.03
2022-10-05T19:16:03.086Z,53.06
2022-10-05T19:18:33.988Z,52.78
2022-10-05T19:21:18.464Z,52.93
2022-10-05T19:23:58.833Z,52.87
2022-10-05T19:26:32.699Z,52.92
2022-10-05T19:29:19.965Z,52.63
2022-10-05T19:31:53.449Z,52.88
2022-10-05T19:34:54.887Z,52.54
2022-10-05T19:37:40.465Z,52.56
2022-10-05T19:40:18.095Z,52.99
2022-10-05T19:43:07.015Z,52.43
2022-10-05T19:45:43.608Z,52.51
2022-10-05T19:48:40.873Z,52.41
2022-10-05T19:51:17.865Z,52.32
2022-10-05T19:53:50.039Z,52.66
2022-10-05T19:56:31.064Z,52.29
2022-10-05T19:59:17.689Z,51.91
2022-10-05T20:01:51.813Z,51.81
2022-10-05T20:04:33.600Z,51.53
2022-10-05T20:07:03.155Z,51.72
2022-10-05T20:10:19.818Z,51.61
2022-10-05T20:12:52.787Z,52.07
2022-10-05T20:15:47.675Z,52.37
2022-10-05T20:19:02.837Z,52.18
2022-10-05T20:21:48.338Z,51.76
2022-10-05T20:24:25.728Z,51.73
2022-10-05T20:27:13.843Z,51.63
2022-10-05T20:29:44.877Z,51.76
2022-10-05T20:32:15.395Z,51.43
2022-10-05T20:34:45.385Z,51.73
2022-10-05T20:37:16.438Z,51.43
2022-10-05T20:39:45.120Z,51.55
2022-10-05T20:42:12.895Z,51.62
2022-10-05T20:44:41.130Z,51.78
2022-10-05T20:47:10.352Z,51.63
2022-10-05T20:49:41.185Z,51.45
2022-10-05T20:52:10.956Z,51.28
2022-10-05T20:54:39.409Z,51.44
2022-10-05T20:57:07.524Z,51.22
2022-10-05T20:59:36.816Z,51.39
2022-10-05T21:02:05.503Z,50.82
2022-10-05T21:04:42.877Z,51.15
2022-10-05T21:07:10.923Z,50.89
2022-10-05T21:09:39.558Z,51.18
2022-10-05T21:12:07.211Z,51.02
2022-10-05T21:14:36.320Z,50.97
2022-10-05T21:17:06.359Z,50.82
2022-10-05T21:19:38.589Z,50.93
2022-10-05T21:22:08.273Z,50.85
2022-10-05T21:24:37.439Z,50.80
2022-10-05T21:27:05.945Z,50.83
2022-10-05T21:29:35.949Z,50.71
2022-10-05T21:32:08.479Z,50.98
2022-10-05T21:34:36.611Z,50.95
2022-10-05T21:37:04.977Z,50.87
2022-10-05T21:39:33.946Z,50.70
2022-10-05T21:42:02.281Z,51.03
2022-10-05T21:44:29.937Z,51.01
2022-10-05T21:46:57.800Z,50.41
2022-10-05T21:49:26.915Z,50.91
2022-10-05T21:51:54.944Z,51.06
2022-10-05T21:54:23.991Z,50.80
2022-10-05T21:56:55.605Z,50.65
2022-10-05T21:59:29.571Z,50.96
2022-10-05T22:01:57.594Z,50.71
2022-10-05T22:04:25.208Z,51.08
2022-10-05T22:06:54.742Z,50.91
2022-10-05T22:09:22.358Z,51.14
2022-10-05T22:11:50.092Z,51.25
2022-10-05T22:14:17.803Z,51.18
2022-10-05T22:16:45.637Z,51.08
2022-10-05T22:19:18.709Z,51.09
2022-10-05T22:21:46.443Z,51.29
2022-10-05T22:24:14.139Z,51.38
2022-10-05T22:26:43.817Z,51.42
2022-10-05T22:29:12.403Z,51.20
2022-10-05T22:31:40.380Z,50.96
2022-10-05T22:34:08.067Z,51.34
2022-10-05T22:36:36.340Z,50.88
2022-10-05T22:39:04.583Z,51.22
2022-10-05T22:41:32.263Z,51.42
2022-10-05T22:44:00.433Z,50.98
2022-10-05T22:46:28.505Z,50.95
2022-10-05T22:48:56.342Z,51.00
2022-10-05T22:51:24.089Z,51.36
2022-10-05T22:53:51.682Z,51.38
2022-10-05T22:56:19.818Z,51.21
2022-10-05T22:58:48.388Z,51.52
2022-10-05T23:01:17.571Z,51.50
2022-10-05T23:03:45.981Z,51.51
2022-10-05T23:06:16.877Z,51.26
2022-10-05T23:08:46.155Z,51.45
2022-10-05T23:11:34.039Z,51.58
2022-10-05T23:14:01.855Z,51.40
2022-10-05T23:16:29.983Z,51.39
2022-10-05T23:19:00.543Z,51.64
2022-10-05T23:21:29.745Z,51.33
2022-10-05T23:23:57.289Z,51.52
2022-10-05T23:26:26.037Z,51.73
2022-10-05T23:28:54.117Z,51.67
2022-10-05T23:31:23.913Z,51.33
2022-10-05T23:33:52.513Z,51.63
2022-10-05T23:36:24.195Z,51.68
2022-10-05T23:38:52.775Z,51.24
2022-10-05T23:41:20.690Z,51.56
2022-10-05T23:43:48.564Z,51.55
2022-10-05T23:46:17.791Z,51.44
2022-10-05T23:48:45.534Z,51.47
2022-10-05T23:51:13.660Z,51.54
2022-10-05T23:53:41.489Z,51.36
2022-10-05T23:56:09.063Z,51.26
2022-10-05T23:58:37.089Z,51.51
